sensor_id;sensor_type;location;lat;lon;timestamp;pressure;altitude;pressure_sealevel;temperature;humidity
10064;BME280;5071;52.360;13.134;2023-08-17T00:03:17;101511.81;;;20.22;91.63
10064;BME280;5071;52.360;13.134;2023-08-17T00:08:19;101502.78;;;20.23;91.08
10064;BME280;5071;52.360;13.134;2023-08-17T00:13:22;101491.25;;;20.19;91.33
10064;BME280;5071;52.360;13.134;2023-08-17T00:18:24;101498.19;;;20.25;90.41
10064;BME280;5071;52.360;13.134;2023-08-17T00:23:26;101494.09;;;20.16;90.83
10064;BME280;5071;52.360;13.134;2023-08-17T00:28:30;101501.06;;;19.98;91.06
10064;BME280;5071;52.360;13.134;2023-08-17T00:33:32;101490.19;;;20.01;90.66
10064;BME280;5071;52.360;13.134;2023-08-17T00:38:34;101478.69;;;19.96;90.74
10064;BME280;5071;52.360;13.134;2023-08-17T00:43:38;101477.53;;;20.03;91.05
10064;BME280;5071;52.360;13.134;2023-08-17T00:48:40;101475.94;;;19.97;91.15
10064;BME280;5071;52.360;13.134;2023-08-17T00:53:43;101465.13;;;19.99;89.86
10064;BME280;5071;52.360;13.134;2023-08-17T00:58:46;101462.59;;;19.94;90.16
10064;BME280;5071;52.360;13.134;2023-08-17T01:03:48;101478.81;;;19.93;90.65
10064;BME280;5071;52.360;13.134;2023-08-17T01:08:51;101467.63;;;19.80;90.60
10064;BME280;5071;52.360;13.134;2023-08-17T01:13:57;101471.09;;;19.84;90.77
10064;BME280;5071;52.360;13.134;2023-08-17T01:19:08;101470.03;;;19.64;91.10
10064;BME280;5071;52.360;13.134;2023-08-17T01:24:12;101470.53;;;19.75;91.09
10064;BME280;5071;52.360;13.134;2023-08-17T01:29:15;101463.13;;;19.57;91.31
10064;BME280;5071;52.360;13.134;2023-08-17T01:34:19;101471.25;;;19.55;91.85
10064;BME280;5071;52.360;13.134;2023-08-17T01:39:27;101463.06;;;19.58;91.38
10064;BME280;5071;52.360;13.134;2023-08-17T01:44:29;101465.91;;;19.54;91.66
10064;BME280;5071;52.360;13.134;2023-08-17T01:49:32;101472.50;;;19.47;91.35
10064;BME280;5071;52.360;13.134;2023-08-17T01:54:35;101467.22;;;19.43;91.58
10064;BME280;5071;52.360;13.134;2023-08-17T01:59:38;101474.38;;;19.45;91.60
10064;BME280;5071;52.360;13.134;2023-08-17T02:04:40;101482.56;;;19.41;91.87
10064;BME280;5071;52.360;13.134;2023-08-17T02:09:44;101474.25;;;19.24;92.38
10064;BME280;5071;52.360;13.134;2023-08-17T02:14:46;101472.06;;;19.34;92.59
10064;BME280;5071;52.360;13.134;2023-08-17T02:19:48;101473.63;;;19.16;92.86
10064;BME280;5071;52.360;13.134;2023-08-17T02:24:52;101464.84;;;19.11;93.22
10064;BME280;5071;52.360;13.134;2023-08-17T02:29:54;101461.88;;;19.18;92.97
10064;BME280;5071;52.360;13.134;2023-08-17T02:34:56;101452.22;;;19.13;92.51
10064;BME280;5071;52.360;13.134;2023-08-17T02:39:59;101457.59;;;19.13;92.87
10064;BME280;5071;52.360;13.134;2023-08-17T02:45:02;101466.69;;;19.09;92.45
10064;BME280;5071;52.360;13.134;2023-08-17T02:50:05;101460.44;;;19.08;93.12
10064;BME280;5071;52.360;13.134;2023-08-17T02:55:09;101457.13;;;19.01;93.13
10064;BME280;5071;52.360;13.134;2023-08-17T03:00:12;101466.00;;;19.03;92.63
10064;BME280;5071;52.360;13.134;2023-08-17T03:05:14;101449.75;;;18.80;93.71
10064;BME280;5071;52.360;13.134;2023-08-17T03:10:18;101450.06;;;18.97;92.65
10064;BME280;5071;52.360;13.134;2023-08-17T03:15:20;101446.09;;;18.82;93.39
10064;BME280;5071;52.360;13.134;2023-08-17T03:20:23;101450.38;;;18.88;93.48
10064;BME280;5071;52.360;13.134;2023-08-17T03:25:26;101441.69;;;18.81;93.58
10064;BME280;5071;52.360;13.134;2023-08-17T03:30:29;101444.31;;;18.83;93.14
10064;BME280;5071;52.360;13.134;2023-08-17T03:35:31;101444.72;;;18.71;93.23
10064;BME280;5071;52.360;13.134;2023-08-17T03:40:34;101448.13;;;18.76;93.44
10064;BME280;5071;52.360;13.134;2023-08-17T03:45:36;101450.31;;;18.64;94.02
10064;BME280;5071;52.360;13.134;2023-08-17T03:50:39;101459.19;;;18.67;93.29
10064;BME280;5071;52.360;13.134;2023-08-17T03:55:45;101448.91;;;18.79;92.38
10064;BME280;5071;52.360;13.134;2023-08-17T04:00:49;101447.50;;;18.94;91.57
10064;BME280;5071;52.360;13.134;2023-08-17T04:05:51;101444.69;;;18.97;91.11
10064;BME280;5071;52.360;13.134;2023-08-17T04:10:54;101439.81;;;19.32;88.91
10064;BME280;5071;52.360;13.134;2023-08-17T04:15:56;101440.00;;;19.51;86.78
10064;BME280;5071;52.360;13.134;2023-08-17T04:20:59;101435.44;;;19.77;86.15
10064;BME280;5071;52.360;13.134;2023-08-17T04:26:02;101438.34;;;19.71;85.77
10064;BME280;5071;52.360;13.134;2023-08-17T04:31:04;101431.50;;;19.86;84.64
10064;BME280;5071;52.360;13.134;2023-08-17T04:36:07;101435.94;;;19.87;84.29
10064;BME280;5071;52.360;13.134;2023-08-17T04:41:10;101437.94;;;19.81;84.34
10064;BME280;5071;52.360;13.134;2023-08-17T04:46:12;101444.28;;;19.80;84.44
10064;BME280;5071;52.360;13.134;2023-08-17T04:51:14;101450.00;;;19.71;85.21
10064;BME280;5071;52.360;13.134;2023-08-17T04:56:19;101444.84;;;19.65;84.59
10064;BME280;5071;52.360;13.134;2023-08-17T05:01:21;101445.31;;;19.53;85.42
10064;BME280;5071;52.360;13.134;2023-08-17T05:06:23;101454.94;;;19.60;85.03
10064;BME280;5071;52.360;13.134;2023-08-17T05:11:26;101454.97;;;19.58;85.10
10064;BME280;5071;52.360;13.134;2023-08-17T05:16:28;101490.38;;;19.73;84.07
10064;BME280;5071;52.360;13.134;2023-08-17T05:21:30;101523.84;;;19.89;83.13
10064;BME280;5071;52.360;13.134;2023-08-17T05:26:34;101565.34;;;19.85;83.97
10064;BME280;5071;52.360;13.134;2023-08-17T05:31:36;101568.16;;;19.82;84.39
10064;BME280;5071;52.360;13.134;2023-08-17T05:36:42;101577.88;;;19.86;86.27
10064;BME280;5071;52.360;13.134;2023-08-17T05:41:46;101592.41;;;19.82;87.63
10064;BME280;5071;52.360;13.134;2023-08-17T05:46:48;101598.25;;;19.68;89.35
10064;BME280;5071;52.360;13.134;2023-08-17T05:51:50;101592.75;;;19.46;95.34
10064;BME280;5071;52.360;13.134;2023-08-17T05:56:54;101584.22;;;19.08;100.00
10064;BME280;5071;52.360;13.134;2023-08-17T06:01:56;101566.06;;;18.88;100.00
10064;BME280;5071;52.360;13.134;2023-08-17T06:06:58;101567.63;;;18.67;100.00
10064;BME280;5071;52.360;13.134;2023-08-17T06:12:02;101570.84;;;18.52;100.00
10064;BME280;5071;52.360;13.134;2023-08-17T06:17:04;101559.25;;;18.50;100.00
10064;BME280;5071;52.360;13.134;2023-08-17T06:22:06;101540.97;;;18.61;100.00
10064;BME280;5071;52.360;13.134;2023-08-17T06:27:13;101523.94;;;18.60;100.00
10064;BME280;5071;52.360;13.134;2023-08-17T06:32:16;101516.78;;;18.88;100.00
10064;BME280;5071;52.360;13.134;2023-08-17T06:37:18;101518.81;;;18.81;100.00
10064;BME280;5071;52.360;13.134;2023-08-17T06:42:22;101497.34;;;19.04;100.00
10064;BME280;5071;52.360;13.134;2023-08-17T06:47:24;101481.19;;;19.04;100.00
10064;BME280;5071;52.360;13.134;2023-08-17T06:52:27;101491.78;;;18.57;100.00
10064;BME280;5071;52.360;13.134;2023-08-17T06:57:30;101499.19;;;18.51;100.00
10064;BME280;5071;52.360;13.134;2023-08-17T07:02:33;101507.94;;;18.84;100.00
10064;BME280;5071;52.360;13.134;2023-08-17T07:07:54;101509.06;;;19.03;100.00
10064;BME280;5071;52.360;13.134;2023-08-17T07:12:58;101520.84;;;18.73;100.00
10064;BME280;5071;52.360;13.134;2023-08-17T07:18:00;101513.53;;;18.50;100.00
10064;BME280;5071;52.360;13.134;2023-08-17T07:23:01;101511.03;;;18.72;100.00
10064;BME280;5071;52.360;13.134;2023-08-17T07:28:05;101491.59;;;18.90;100.00
10064;BME280;5071;52.360;13.134;2023-08-17T07:33:31;101497.47;;;19.27;100.00
10064;BME280;5071;52.360;13.134;2023-08-17T07:38:33;101502.66;;;19.80;100.00
10064;BME280;5071;52.360;13.134;2023-08-17T07:43:37;101490.44;;;20.39;98.90
10064;BME280;5071;52.360;13.134;2023-08-17T07:48:39;101489.88;;;20.95;95.37
10064;BME280;5071;52.360;13.134;2023-08-17T07:53:41;101480.66;;;20.79;96.47
10064;BME280;5071;52.360;13.134;2023-08-17T07:58:45;101464.06;;;21.09;95.42
10064;BME280;5071;52.360;13.134;2023-08-17T08:03:47;101449.50;;;21.13;96.03
10064;BME280;5071;52.360;13.134;2023-08-17T08:08:49;101438.69;;;21.13;96.26
10064;BME280;5071;52.360;13.134;2023-08-17T08:13:52;101425.94;;;20.96;95.23
10064;BME280;5071;52.360;13.134;2023-08-17T08:18:55;101433.78;;;21.42;95.85
10064;BME280;5071;52.360;13.134;2023-08-17T08:23:57;101433.72;;;22.37;91.89
10064;BME280;5071;52.360;13.134;2023-08-17T08:29:00;101432.94;;;22.35;89.57
10064;BME280;5071;52.360;13.134;2023-08-17T08:34:03;101428.09;;;22.59;90.76
10064;BME280;5071;52.360;13.134;2023-08-17T08:39:05;101433.97;;;23.02;85.21
10064;BME280;5071;52.360;13.134;2023-08-17T08:44:09;101421.97;;;22.90;83.33
10064;BME280;5071;52.360;13.134;2023-08-17T08:49:11;101432.22;;;23.18;83.62
10064;BME280;5071;52.360;13.134;2023-08-17T08:54:20;101435.72;;;23.36;81.96
10064;BME280;5071;52.360;13.134;2023-08-17T08:59:24;101443.88;;;22.68;81.10
10064;BME280;5071;52.360;13.134;2023-08-17T09:04:27;101443.19;;;23.15;82.99
10064;BME280;5071;52.360;13.134;2023-08-17T09:09:30;101451.78;;;23.23;77.57
10064;BME280;5071;52.360;13.134;2023-08-17T09:14:34;101452.47;;;23.60;76.31
10064;BME280;5071;52.360;13.134;2023-08-17T09:19:36;101447.81;;;23.96;76.72
10064;BME280;5071;52.360;13.134;2023-08-17T09:24:43;101439.97;;;24.53;73.93
10064;BME280;5071;52.360;13.134;2023-08-17T09:29:46;101440.81;;;23.42;77.21
10064;BME280;5071;52.360;13.134;2023-08-17T09:34:49;101443.84;;;24.01;77.85
10064;BME280;5071;52.360;13.134;2023-08-17T09:39:51;101440.66;;;25.73;71.70
10064;BME280;5071;52.360;13.134;2023-08-17T09:44:54;101446.63;;;26.07;68.78
10064;BME280;5071;52.360;13.134;2023-08-17T09:49:56;101436.84;;;25.18;72.87
10064;BME280;5071;52.360;13.134;2023-08-17T09:54:59;101428.94;;;25.30;71.63
10064;BME280;5071;52.360;13.134;2023-08-17T10:00:04;101443.22;;;25.48;73.08
10064;BME280;5071;52.360;13.134;2023-08-17T10:05:09;101439.41;;;27.76;62.89
10064;BME280;5071;52.360;13.134;2023-08-17T10:10:14;101435.56;;;29.56;56.72
10064;BME280;5071;52.360;13.134;2023-08-17T10:15:22;101435.91;;;31.86;51.22
10064;BME280;5071;52.360;13.134;2023-08-17T10:20:30;101430.34;;;32.85;46.82
10064;BME280;5071;52.360;13.134;2023-08-17T10:25:32;101440.69;;;30.80;51.61
10064;BME280;5071;52.360;13.134;2023-08-17T10:30:37;101436.56;;;29.89;56.35
10064;BME280;5071;52.360;13.134;2023-08-17T10:35:40;101435.84;;;31.35;50.68
10064;BME280;5071;52.360;13.134;2023-08-17T10:40:42;101438.84;;;32.91;48.26
10064;BME280;5071;52.360;13.134;2023-08-17T10:45:46;101436.31;;;33.27;45.07
10064;BME280;5071;52.360;13.134;2023-08-17T10:50:59;101428.47;;;30.84;50.80
10064;BME280;5071;52.360;13.134;2023-08-17T10:56:06;101422.38;;;29.83;53.12
10064;BME280;5071;52.360;13.134;2023-08-17T11:01:09;101418.53;;;29.30;55.35
10064;BME280;5071;52.360;13.134;2023-08-17T11:06:17;101418.66;;;28.35;58.55
10064;BME280;5071;52.360;13.134;2023-08-17T11:11:20;101411.69;;;29.46;57.67
10064;BME280;5071;52.360;13.134;2023-08-17T11:16:24;101406.94;;;29.82;52.58
10064;BME280;5071;52.360;13.134;2023-08-17T11:21:26;101407.03;;;28.44;57.22
10064;BME280;5071;52.360;13.134;2023-08-17T11:26:28;101413.06;;;27.38;62.00
10064;BME280;5071;52.360;13.134;2023-08-17T11:31:39;101399.69;;;27.72;60.28
10064;BME280;5071;52.360;13.134;2023-08-17T11:36:41;101407.34;;;27.67;61.74
10064;BME280;5071;52.360;13.134;2023-08-17T11:41:43;101400.75;;;26.68;63.42
10064;BME280;5071;52.360;13.134;2023-08-17T11:46:47;101400.75;;;26.81;65.45
10064;BME280;5071;52.360;13.134;2023-08-17T11:51:49;101403.88;;;27.65;61.20
10064;BME280;5071;52.360;13.134;2023-08-17T11:56:51;101399.25;;;29.65;55.84
10064;BME280;5071;52.360;13.134;2023-08-17T12:01:55;101397.41;;;29.20;58.23
10064;BME280;5071;52.360;13.134;2023-08-17T12:06:57;101402.25;;;30.91;52.02
10064;BME280;5071;52.360;13.134;2023-08-17T12:11:59;101400.03;;;30.43;53.17
10064;BME280;5071;52.360;13.134;2023-08-17T12:17:03;101392.19;;;31.32;52.14
10064;BME280;5071;52.360;13.134;2023-08-17T12:22:05;101386.28;;;30.33;52.98
10064;BME280;5071;52.360;13.134;2023-08-17T12:27:07;101376.09;;;29.80;56.44
10064;BME280;5071;52.360;13.134;2023-08-17T12:32:11;101377.28;;;29.33;57.39
10064;BME280;5071;52.360;13.134;2023-08-17T12:37:19;101370.91;;;29.55;57.07
10064;BME280;5071;52.360;13.134;2023-08-17T12:42:21;101372.81;;;28.62;59.60
10064;BME280;5071;52.360;13.134;2023-08-17T12:47:24;101370.06;;;29.20;57.54
10064;BME280;5071;52.360;13.134;2023-08-17T12:52:27;101363.09;;;28.47;58.86
10064;BME280;5071;52.360;13.134;2023-08-17T12:57:29;101361.34;;;28.46;61.08
10064;BME280;5071;52.360;13.134;2023-08-17T13:02:33;101368.13;;;28.53;60.62
10064;BME280;5071;52.360;13.134;2023-08-17T13:07:35;101375.56;;;28.27;60.61
10064;BME280;5071;52.360;13.134;2023-08-17T13:12:37;101364.19;;;28.80;59.61
10064;BME280;5071;52.360;13.134;2023-08-17T13:17:41;101356.97;;;28.79;59.45
10064;BME280;5071;52.360;13.134;2023-08-17T13:22:43;101358.84;;;29.46;57.72
10064;BME280;5071;52.360;13.134;2023-08-17T13:27:46;101352.78;;;28.50;60.13
10064;BME280;5071;52.360;13.134;2023-08-17T13:32:50;101333.88;;;29.05;59.28
10064;BME280;5071;52.360;13.134;2023-08-17T13:37:52;101337.63;;;29.38;57.60
10064;BME280;5071;52.360;13.134;2023-08-17T13:42:54;101335.09;;;30.34;56.92
10064;BME280;5071;52.360;13.134;2023-08-17T13:47:58;101331.34;;;30.35;55.89
10064;BME280;5071;52.360;13.134;2023-08-17T13:53:00;101336.25;;;29.88;54.46
10064;BME280;5071;52.360;13.134;2023-08-17T13:58:02;101333.75;;;29.96;54.34
10064;BME280;5071;52.360;13.134;2023-08-17T14:03:06;101333.56;;;30.09;55.58
10064;BME280;5071;52.360;13.134;2023-08-17T14:08:08;101335.25;;;30.21;55.63
10064;BME280;5071;52.360;13.134;2023-08-17T14:13:10;101325.00;;;29.70;57.63
10064;BME280;5071;52.360;13.134;2023-08-17T14:18:14;101319.31;;;29.94;54.53
10064;BME280;5071;52.360;13.134;2023-08-17T14:23:16;101308.53;;;29.15;57.76
10064;BME280;5071;52.360;13.134;2023-08-17T14:28:18;101299.31;;;28.13;60.09
10064;BME280;5071;52.360;13.134;2023-08-17T14:33:21;101303.81;;;29.28;60.31
10064;BME280;5071;52.360;13.134;2023-08-17T14:38:23;101293.66;;;29.19;56.85
10064;BME280;5071;52.360;13.134;2023-08-17T14:43:32;101291.56;;;29.55;57.77
10064;BME280;5071;52.360;13.134;2023-08-17T14:48:36;101281.22;;;30.44;54.00
10064;BME280;5071;52.360;13.134;2023-08-17T14:53:40;101286.06;;;31.23;52.62
10064;BME280;5071;52.360;13.134;2023-08-17T14:58:43;101276.13;;;31.42;53.58
10064;BME280;5071;52.360;13.134;2023-08-17T15:03:46;101273.56;;;30.69;53.66
10064;BME280;5071;52.360;13.134;2023-08-17T15:08:48;101275.78;;;29.91;55.88
10064;BME280;5071;52.360;13.134;2023-08-17T15:13:50;101268.63;;;29.78;57.68
10064;BME280;5071;52.360;13.134;2023-08-17T15:18:54;101263.25;;;29.44;57.91
10064;BME280;5071;52.360;13.134;2023-08-17T15:23:56;101272.25;;;30.00;57.64
10064;BME280;5071;52.360;13.134;2023-08-17T15:29:01;101271.50;;;29.11;57.67
10064;BME280;5071;52.360;13.134;2023-08-17T15:34:04;101269.03;;;29.07;59.05
10064;BME280;5071;52.360;13.134;2023-08-17T15:39:06;101276.28;;;30.38;54.45
10064;BME280;5071;52.360;13.134;2023-08-17T15:44:08;101279.06;;;30.27;54.64
10064;BME280;5071;52.360;13.134;2023-08-17T15:49:12;101274.50;;;29.19;57.88
10064;BME280;5071;52.360;13.134;2023-08-17T15:54:13;101277.47;;;29.04;60.08
10064;BME280;5071;52.360;13.134;2023-08-17T15:59:35;101274.44;;;28.40;60.64
10064;BME280;5071;52.360;13.134;2023-08-17T16:04:38;101263.09;;;27.86;62.74
10064;BME280;5071;52.360;13.134;2023-08-17T16:09:40;101257.53;;;27.88;64.33
10064;BME280;5071;52.360;13.134;2023-08-17T16:14:42;101273.34;;;27.47;65.68
10064;BME280;5071;52.360;13.134;2023-08-17T16:19:54;101273.75;;;27.30;67.43
10064;BME280;5071;52.360;13.134;2023-08-17T16:24:56;101262.38;;;27.36;67.89
10064;BME280;5071;52.360;13.134;2023-08-17T16:29:58;101256.34;;;27.07;68.07
10064;BME280;5071;52.360;13.134;2023-08-17T16:35:02;101271.63;;;26.96;68.66
10064;BME280;5071;52.360;13.134;2023-08-17T16:40:06;101265.09;;;26.99;68.31
10064;BME280;5071;52.360;13.134;2023-08-17T16:45:09;101268.03;;;26.83;68.61
10064;BME280;5071;52.360;13.134;2023-08-17T16:50:13;101269.06;;;26.69;69.15
10064;BME280;5071;52.360;13.134;2023-08-17T16:55:16;101264.91;;;26.51;70.26
10064;BME280;5071;52.360;13.134;2023-08-17T17:00:18;101256.72;;;26.51;69.98
10064;BME280;5071;52.360;13.134;2023-08-17T17:05:22;101265.09;;;26.48;70.84
10064;BME280;5071;52.360;13.134;2023-08-17T17:10:23;101259.53;;;26.36;71.00
10064;BME280;5071;52.360;13.134;2023-08-17T17:15:26;101263.59;;;26.44;70.88
10064;BME280;5071;52.360;13.134;2023-08-17T17:20:29;101266.84;;;26.23;71.04
10064;BME280;5071;52.360;13.134;2023-08-17T17:25:32;101270.41;;;26.11;72.63
10064;BME280;5071;52.360;13.134;2023-08-17T17:30:34;101272.06;;;26.13;71.45
10064;BME280;5071;52.360;13.134;2023-08-17T17:35:37;101275.19;;;25.94;72.82
10064;BME280;5071;52.360;13.134;2023-08-17T17:40:39;101272.81;;;25.88;73.29
10064;BME280;5071;52.360;13.134;2023-08-17T17:45:41;101281.94;;;25.74;74.01
10064;BME280;5071;52.360;13.134;2023-08-17T17:50:45;101285.97;;;25.54;74.02
10064;BME280;5071;52.360;13.134;2023-08-17T17:55:47;101290.13;;;25.60;73.99
10064;BME280;5071;52.360;13.134;2023-08-17T18:00:49;101298.44;;;25.58;75.01
10064;BME280;5071;52.360;13.134;2023-08-17T18:05:52;101297.34;;;25.61;73.81
10064;BME280;5071;52.360;13.134;2023-08-17T18:10:55;101287.00;;;25.39;74.82
10064;BME280;5071;52.360;13.134;2023-08-17T18:15:57;101289.38;;;25.31;75.47
10064;BME280;5071;52.360;13.134;2023-08-17T18:21:01;101294.03;;;25.14;75.91
10064;BME280;5071;52.360;13.134;2023-08-17T18:26:03;101298.31;;;25.04;77.25
10064;BME280;5071;52.360;13.134;2023-08-17T18:31:05;101304.25;;;24.82;77.67
10064;BME280;5071;52.360;13.134;2023-08-17T18:36:09;101298.81;;;24.68;78.97
10064;BME280;5071;52.360;13.134;2023-08-17T18:41:12;101302.78;;;24.62;78.61
10064;BME280;5071;52.360;13.134;2023-08-17T18:46:13;101311.47;;;24.38;80.21
10064;BME280;5071;52.360;13.134;2023-08-17T18:51:17;101310.72;;;24.20;81.78
10064;BME280;5071;52.360;13.134;2023-08-17T18:56:19;101307.06;;;24.36;81.69
10064;BME280;5071;52.360;13.134;2023-08-17T19:01:21;101302.06;;;24.14;82.36
10064;BME280;5071;52.360;13.134;2023-08-17T19:06:25;101300.91;;;24.03;82.91
10064;BME280;5071;52.360;13.134;2023-08-17T19:11:27;101306.00;;;23.94;82.89
10064;BME280;5071;52.360;13.134;2023-08-17T19:16:29;101313.22;;;23.79;83.63
10064;BME280;5071;52.360;13.134;2023-08-17T19:21:33;101308.28;;;23.85;82.40
10064;BME280;5071;52.360;13.134;2023-08-17T19:26:34;101295.78;;;23.83;82.75
10064;BME280;5071;52.360;13.134;2023-08-17T19:31:37;101285.69;;;24.01;81.25
10064;BME280;5071;52.360;13.134;2023-08-17T19:36:40;101291.22;;;23.83;81.52
10064;BME280;5071;52.360;13.134;2023-08-17T19:41:42;101290.09;;;23.72;81.55
10064;BME280;5071;52.360;13.134;2023-08-17T19:46:44;101293.59;;;23.74;81.82
10064;BME280;5071;52.360;13.134;2023-08-17T19:51:48;101287.19;;;23.91;80.93
10064;BME280;5071;52.360;13.134;2023-08-17T19:56:50;101285.00;;;23.97;80.34
10064;BME280;5071;52.360;13.134;2023-08-17T20:01:52;101271.75;;;23.61;82.64
10064;BME280;5071;52.360;13.134;2023-08-17T20:06:55;101283.91;;;22.73;89.44
10064;BME280;5071;52.360;13.134;2023-08-17T20:11:57;101273.25;;;22.19;96.28
10064;BME280;5071;52.360;13.134;2023-08-17T20:16:59;101269.47;;;21.32;100.00
10064;BME280;5071;52.360;13.134;2023-08-17T20:22:03;101278.91;;;21.05;100.00
10064;BME280;5071;52.360;13.134;2023-08-17T20:27:05;101278.59;;;20.92;100.00
10064;BME280;5071;52.360;13.134;2023-08-17T20:32:10;101280.63;;;21.06;100.00
10064;BME280;5071;52.360;13.134;2023-08-17T20:37:13;101272.59;;;20.85;100.00
10064;BME280;5071;52.360;13.134;2023-08-17T20:42:15;101275.97;;;20.90;100.00
10064;BME280;5071;52.360;13.134;2023-08-17T20:47:17;101299.47;;;20.88;100.00
10064;BME280;5071;52.360;13.134;2023-08-17T20:52:21;101321.19;;;20.85;100.00
10064;BME280;5071;52.360;13.134;2023-08-17T20:57:23;101319.75;;;20.78;100.00
10064;BME280;5071;52.360;13.134;2023-08-17T21:02:27;101311.28;;;20.86;100.00
10064;BME280;5071;52.360;13.134;2023-08-17T21:07:30;101331.13;;;21.04;100.00
10064;BME280;5071;52.360;13.134;2023-08-17T21:12:33;101422.44;;;20.94;100.00
10064;BME280;5071;52.360;13.134;2023-08-17T21:17:35;101397.25;;;21.14;100.00
10064;BME280;5071;52.360;13.134;2023-08-17T21:22:45;101394.50;;;21.15;100.00
10064;BME280;5071;52.360;13.134;2023-08-17T21:27:47;101390.84;;;20.34;100.00
10064;BME280;5071;52.360;13.134;2023-08-17T21:32:48;101373.31;;;19.58;100.00
10064;BME280;5071;52.360;13.134;2023-08-17T21:37:52;101355.34;;;19.13;100.00
10064;BME280;5071;52.360;13.134;2023-08-17T21:42:54;101344.00;;;19.50;100.00
10064;BME280;5071;52.360;13.134;2023-08-17T21:47:57;101322.19;;;19.34;100.00
10064;BME280;5071;52.360;13.134;2023-08-17T21:53:00;101313.91;;;19.17;100.00
10064;BME280;5071;52.360;13.134;2023-08-17T21:58:03;101306.53;;;18.98;100.00
10064;BME280;5071;52.360;13.134;2023-08-17T22:03:05;101303.91;;;19.42;100.00
10064;BME280;5071;52.360;13.134;2023-08-17T22:08:08;101317.16;;;19.25;100.00
10064;BME280;5071;52.360;13.134;2023-08-17T22:13:11;101339.66;;;19.24;100.00
10064;BME280;5071;52.360;13.134;2023-08-17T22:18:13;101337.59;;;19.31;100.00
10064;BME280;5071;52.360;13.134;2023-08-17T22:23:16;101329.16;;;19.40;100.00
10064;BME280;5071;52.360;13.134;2023-08-17T22:28:18;101321.44;;;19.53;100.00
10064;BME280;5071;52.360;13.134;2023-08-17T22:33:21;101336.00;;;19.49;100.00
10064;BME280;5071;52.360;13.134;2023-08-17T22:38:24;101320.94;;;19.65;100.00
10064;BME280;5071;52.360;13.134;2023-08-17T22:43:26;101322.09;;;19.81;100.00
10064;BME280;5071;52.360;13.134;2023-08-17T22:48:28;101318.31;;;19.86;100.00
10064;BME280;5071;52.360;13.134;2023-08-17T22:53:31;101318.19;;;19.67;100.00
10064;BME280;5071;52.360;13.134;2023-08-17T22:58:34;101318.94;;;19.48;100.00
10064;BME280;5071;52.360;13.134;2023-08-17T23:03:36;101324.84;;;19.58;100.00
10064;BME280;5071;52.360;13.134;2023-08-17T23:08:39;101337.88;;;19.47;100.00
10064;BME280;5071;52.360;13.134;2023-08-17T23:13:42;101326.44;;;19.40;100.00
10064;BME280;5071;52.360;13.134;2023-08-17T23:18:44;101319.06;;;19.45;100.00
10064;BME280;5071;52.360;13.134;2023-08-17T23:23:47;101309.47;;;19.38;100.00
10064;BME280;5071;52.360;13.134;2023-08-17T23:28:49;101322.53;;;19.49;100.00
10064;BME280;5071;52.360;13.134;2023-08-17T23:33:51;101301.41;;;19.60;100.00
10064;BME280;5071;52.360;13.134;2023-08-17T23:38:54;101307.63;;;19.62;100.00
10064;BME280;5071;52.360;13.134;2023-08-17T23:43:57;101306.47;;;19.68;100.00
10064;BME280;5071;52.360;13.134;2023-08-17T23:48:59;101297.34;;;19.94;100.00
10064;BME280;5071;52.360;13.134;2023-08-17T23:54:03;101290.97;;;19.74;100.00
10064;BME280;5071;52.360;13.134;2023-08-17T23:59:05;101294.03;;;20.08;100.00
